sensor_id;sensor_type;location;lat;lon;timestamp;pressure;altitude;pressure_sealevel;temperature;humidity
46722;BME280;32455;43.430;23.136;2022-12-08T00:00:31;98063.31;;;3.50;100.00
46722;BME280;32455;43.430;23.136;2022-12-08T00:03:16;98068.41;;;3.60;100.00
46722;BME280;32455;43.430;23.136;2022-12-08T00:06:21;98059.41;;;3.76;100.00
46722;BME280;32455;43.430;23.136;2022-12-08T00:09:30;98074.63;;;3.53;100.00
46722;BME280;32455;43.430;23.136;2022-12-08T00:12:16;98063.88;;;3.46;100.00
46722;BME280;32455;43.430;23.136;2022-12-08T00:15:02;98063.88;;;3.46;100.00
46722;BME280;32455;43.430;23.136;2022-12-08T00:17:48;98057.91;;;3.44;100.00
46722;BME280;32455;43.430;23.136;2022-12-08T00:20:33;98046.94;;;3.47;100.00
46722;BME280;32455;43.430;23.136;2022-12-08T00:23:18;98057.31;;;3.57;100.00
46722;BME280;32455;43.430;23.136;2022-12-08T00:26:04;98059.78;;;3.58;100.00
46722;BME280;32455;43.430;23.136;2022-12-08T00:28:50;98057.22;;;3.65;100.00
46722;BME280;32455;43.430;23.136;2022-12-08T00:31:35;98039.44;;;3.65;100.00
46722;BME280;32455;43.430;23.136;2022-12-08T00:34:20;98058.75;;;3.59;100.00
46722;BME280;32455;43.430;23.136;2022-12-08T00:37:06;98055.75;;;3.62;100.00
46722;BME280;32455;43.430;23.136;2022-12-08T00:39:51;98062.53;;;3.65;100.00
46722;BME280;32455;43.430;23.136;2022-12-08T00:42:37;98055.94;;;3.75;100.00
46722;BME280;32455;43.430;23.136;2022-12-08T00:45:22;98077.66;;;3.64;100.00
46722;BME280;32455;43.430;23.136;2022-12-08T00:48:07;98080.00;;;3.59;100.00
46722;BME280;32455;43.430;23.136;2022-12-08T00:50:53;98063.44;;;3.72;100.00
46722;BME280;32455;43.430;23.136;2022-12-08T00:53:37;98055.47;;;3.57;100.00
46722;BME280;32455;43.430;23.136;2022-12-08T00:56:24;98061.25;;;3.75;100.00
46722;BME280;32455;43.430;23.136;2022-12-08T00:59:10;98059.03;;;3.49;100.00
46722;BME280;32455;43.430;23.136;2022-12-08T01:01:55;98066.44;;;3.54;100.00
46722;BME280;32455;43.430;23.136;2022-12-08T01:04:41;98049.41;;;3.63;100.00
46722;BME280;32455;43.430;23.136;2022-12-08T01:07:26;98059.50;;;3.68;100.00
46722;BME280;32455;43.430;23.136;2022-12-08T01:10:12;98063.72;;;3.62;100.00
46722;BME280;32455;43.430;23.136;2022-12-08T01:12:58;98038.72;;;3.57;100.00
46722;BME280;32455;43.430;23.136;2022-12-08T01:15:43;98034.75;;;3.53;100.00
46722;BME280;32455;43.430;23.136;2022-12-08T01:18:29;98033.41;;;3.57;100.00
46722;BME280;32455;43.430;23.136;2022-12-08T01:21:15;98046.75;;;3.63;100.00
46722;BME280;32455;43.430;23.136;2022-12-08T01:24:02;98044.50;;;3.60;100.00
46722;BME280;32455;43.430;23.136;2022-12-08T01:26:48;98046.53;;;3.73;100.00
46722;BME280;32455;43.430;23.136;2022-12-08T01:29:34;98042.84;;;3.74;100.00
46722;BME280;32455;43.430;23.136;2022-12-08T01:32:19;98042.75;;;3.67;100.00
46722;BME280;32455;43.430;23.136;2022-12-08T01:35:06;98032.31;;;3.66;100.00
46722;BME280;32455;43.430;23.136;2022-12-08T01:37:52;98054.50;;;3.73;100.00
46722;BME280;32455;43.430;23.136;2022-12-08T01:40:37;98038.34;;;3.74;100.00
46722;BME280;32455;43.430;23.136;2022-12-08T01:43:22;98036.06;;;3.71;100.00
46722;BME280;32455;43.430;23.136;2022-12-08T01:46:08;98041.94;;;3.82;100.00
46722;BME280;32455;43.430;23.136;2022-12-08T01:49:08;98030.47;;;3.66;100.00
46722;BME280;32455;43.430;23.136;2022-12-08T01:54:52;98037.63;;;3.66;100.00
46722;BME280;32455;43.430;23.136;2022-12-08T01:57:46;98036.78;;;3.65;100.00
46722;BME280;32455;43.430;23.136;2022-12-08T02:00:33;98030.75;;;3.71;100.00
46722;BME280;32455;43.430;23.136;2022-12-08T02:03:40;98020.66;;;3.67;100.00
46722;BME280;32455;43.430;23.136;2022-12-08T02:06:28;98042.47;;;3.62;100.00
46722;BME280;32455;43.430;23.136;2022-12-08T02:09:15;98037.34;;;3.61;100.00
46722;BME280;32455;43.430;23.136;2022-12-08T02:12:00;98030.09;;;3.69;100.00
46722;BME280;32455;43.430;23.136;2022-12-08T02:14:46;98011.84;;;3.81;100.00
46722;BME280;32455;43.430;23.136;2022-12-08T02:18:07;98014.34;;;3.83;100.00
46722;BME280;32455;43.430;23.136;2022-12-08T02:30:07;98029.66;;;3.66;100.00
46722;BME280;32455;43.430;23.136;2022-12-08T02:36:14;98023.50;;;3.80;100.00
46722;BME280;32455;43.430;23.136;2022-12-08T02:39:20;98037.25;;;3.69;100.00
46722;BME280;32455;43.430;23.136;2022-12-08T02:42:28;98034.88;;;3.74;100.00
46722;BME280;32455;43.430;23.136;2022-12-08T02:45:40;98041.09;;;3.66;100.00
46722;BME280;32455;43.430;23.136;2022-12-08T02:48:28;98034.69;;;3.61;100.00
46722;BME280;32455;43.430;23.136;2022-12-08T02:51:14;98028.56;;;3.90;100.00
46722;BME280;32455;43.430;23.136;2022-12-08T02:54:01;98016.75;;;3.78;100.00
46722;BME280;32455;43.430;23.136;2022-12-08T02:57:11;98024.13;;;3.67;100.00
46722;BME280;32455;43.430;23.136;2022-12-08T03:00:15;98020.69;;;3.82;100.00
46722;BME280;32455;43.430;23.136;2022-12-08T03:06:27;98034.00;;;3.44;100.00
46722;BME280;32455;43.430;23.136;2022-12-08T03:09:33;98016.53;;;3.49;100.00
46722;BME280;32455;43.430;23.136;2022-12-08T03:15:13;98032.94;;;3.83;100.00
46722;BME280;32455;43.430;23.136;2022-12-08T03:18:01;98027.91;;;3.73;100.00
46722;BME280;32455;43.430;23.136;2022-12-08T03:20:49;98041.63;;;3.76;100.00
46722;BME280;32455;43.430;23.136;2022-12-08T03:23:36;98049.41;;;3.48;100.00
46722;BME280;32455;43.430;23.136;2022-12-08T03:26:47;98038.44;;;3.81;100.00
46722;BME280;32455;43.430;23.136;2022-12-08T03:29:34;98043.38;;;3.84;100.00
46722;BME280;32455;43.430;23.136;2022-12-08T03:35:11;98031.28;;;3.67;100.00
46722;BME280;32455;43.430;23.136;2022-12-08T03:38:03;98034.97;;;3.66;100.00
46722;BME280;32455;43.430;23.136;2022-12-08T03:40:48;98027.19;;;3.64;100.00
46722;BME280;32455;43.430;23.136;2022-12-08T03:43:56;98047.34;;;3.73;100.00
46722;BME280;32455;43.430;23.136;2022-12-08T03:46:43;98035.03;;;3.72;100.00
46722;BME280;32455;43.430;23.136;2022-12-08T03:49:29;98027.53;;;3.76;100.00
46722;BME280;32455;43.430;23.136;2022-12-08T03:52:15;98031.38;;;3.88;100.00
46722;BME280;32455;43.430;23.136;2022-12-08T03:55:00;98033.97;;;3.82;100.00
46722;BME280;32455;43.430;23.136;2022-12-08T03:57:45;98035.44;;;3.69;100.00
46722;BME280;32455;43.430;23.136;2022-12-08T04:00:31;98053.09;;;3.62;100.00
46722;BME280;32455;43.430;23.136;2022-12-08T04:03:16;98053.13;;;3.77;100.00
46722;BME280;32455;43.430;23.136;2022-12-08T04:06:05;98040.00;;;3.75;100.00
46722;BME280;32455;43.430;23.136;2022-12-08T04:08:51;98047.41;;;3.80;100.00
46722;BME280;32455;43.430;23.136;2022-12-08T04:11:37;98042.09;;;3.80;100.00
46722;BME280;32455;43.430;23.136;2022-12-08T04:14:22;98047.69;;;3.70;100.00
46722;BME280;32455;43.430;23.136;2022-12-08T04:17:07;98049.69;;;3.54;100.00
46722;BME280;32455;43.430;23.136;2022-12-08T04:19:53;98053.38;;;3.67;100.00
46722;BME280;32455;43.430;23.136;2022-12-08T04:22:40;98046.06;;;3.69;100.00
46722;BME280;32455;43.430;23.136;2022-12-08T04:25:25;98059.19;;;3.86;100.00
46722;BME280;32455;43.430;23.136;2022-12-08T04:28:10;98044.69;;;3.73;100.00
46722;BME280;32455;43.430;23.136;2022-12-08T04:30:58;98051.28;;;3.78;100.00
46722;BME280;32455;43.430;23.136;2022-12-08T04:33:44;98046.50;;;3.58;100.00
46722;BME280;32455;43.430;23.136;2022-12-08T04:36:29;98045.22;;;3.69;100.00
46722;BME280;32455;43.430;23.136;2022-12-08T04:39:15;98043.00;;;3.72;100.00
46722;BME280;32455;43.430;23.136;2022-12-08T04:42:00;98026.63;;;3.69;100.00
46722;BME280;32455;43.430;23.136;2022-12-08T04:44:46;98048.31;;;3.58;100.00
46722;BME280;32455;43.430;23.136;2022-12-08T04:47:32;98054.47;;;3.58;100.00
46722;BME280;32455;43.430;23.136;2022-12-08T04:50:17;98061.81;;;3.71;100.00
46722;BME280;32455;43.430;23.136;2022-12-08T04:53:02;98047.06;;;3.68;100.00
46722;BME280;32455;43.430;23.136;2022-12-08T04:55:48;98047.97;;;3.75;100.00
46722;BME280;32455;43.430;23.136;2022-12-08T04:58:34;98065.19;;;3.80;100.00
46722;BME280;32455;43.430;23.136;2022-12-08T05:01:19;98049.19;;;3.73;100.00
46722;BME280;32455;43.430;23.136;2022-12-08T05:04:05;98054.56;;;3.80;100.00
46722;BME280;32455;43.430;23.136;2022-12-08T05:06:50;98057.69;;;3.83;100.00
46722;BME280;32455;43.430;23.136;2022-12-08T05:09:36;98037.69;;;3.72;100.00
46722;BME280;32455;43.430;23.136;2022-12-08T05:12:21;98054.22;;;3.83;100.00
46722;BME280;32455;43.430;23.136;2022-12-08T05:15:07;98072.06;;;3.89;100.00
46722;BME280;32455;43.430;23.136;2022-12-08T05:17:53;98075.84;;;3.80;100.00
46722;BME280;32455;43.430;23.136;2022-12-08T05:20:39;98065.56;;;3.76;100.00
46722;BME280;32455;43.430;23.136;2022-12-08T05:23:26;98077.75;;;3.71;100.00
46722;BME280;32455;43.430;23.136;2022-12-08T05:26:12;98079.16;;;3.82;100.00
46722;BME280;32455;43.430;23.136;2022-12-08T05:28:57;98070.72;;;3.93;100.00
46722;BME280;32455;43.430;23.136;2022-12-08T05:31:42;98057.50;;;3.85;100.00
46722;BME280;32455;43.430;23.136;2022-12-08T05:34:28;98068.31;;;3.83;100.00
46722;BME280;32455;43.430;23.136;2022-12-08T05:37:13;98074.09;;;4.01;100.00
46722;BME280;32455;43.430;23.136;2022-12-08T05:39:59;98066.31;;;4.00;100.00
46722;BME280;32455;43.430;23.136;2022-12-08T05:42:44;98077.03;;;3.92;100.00
46722;BME280;32455;43.430;23.136;2022-12-08T05:45:30;98077.66;;;3.94;100.00
46722;BME280;32455;43.430;23.136;2022-12-08T05:48:16;98065.66;;;3.83;100.00
46722;BME280;32455;43.430;23.136;2022-12-08T05:51:01;98050.00;;;3.73;100.00
46722;BME280;32455;43.430;23.136;2022-12-08T05:53:47;98066.75;;;3.89;100.00
46722;BME280;32455;43.430;23.136;2022-12-08T05:56:34;98087.38;;;3.72;100.00
46722;BME280;32455;43.430;23.136;2022-12-08T05:59:20;98074.25;;;3.56;100.00
46722;BME280;32455;43.430;23.136;2022-12-08T06:02:06;98077.13;;;3.69;100.00
46722;BME280;32455;43.430;23.136;2022-12-08T06:04:52;98089.84;;;3.73;100.00
46722;BME280;32455;43.430;23.136;2022-12-08T06:07:39;98063.94;;;3.90;100.00
46722;BME280;32455;43.430;23.136;2022-12-08T06:10:24;98082.63;;;3.97;100.00
46722;BME280;32455;43.430;23.136;2022-12-08T06:13:10;98089.88;;;3.88;100.00
46722;BME280;32455;43.430;23.136;2022-12-08T06:16:02;98092.25;;;3.98;100.00
46722;BME280;32455;43.430;23.136;2022-12-08T06:18:49;98086.84;;;4.06;100.00
46722;BME280;32455;43.430;23.136;2022-12-08T06:21:35;98072.28;;;3.87;100.00
46722;BME280;32455;43.430;23.136;2022-12-08T06:24:21;98065.84;;;3.96;100.00
46722;BME280;32455;43.430;23.136;2022-12-08T06:27:07;98075.00;;;4.23;100.00
46722;BME280;32455;43.430;23.136;2022-12-08T06:29:52;98064.66;;;4.14;100.00
46722;BME280;32455;43.430;23.136;2022-12-08T06:32:37;98088.69;;;4.20;100.00
46722;BME280;32455;43.430;23.136;2022-12-08T06:35:22;98086.28;;;4.11;100.00
46722;BME280;32455;43.430;23.136;2022-12-08T06:38:07;98081.19;;;3.94;100.00
46722;BME280;32455;43.430;23.136;2022-12-08T06:40:54;98087.88;;;3.90;100.00
46722;BME280;32455;43.430;23.136;2022-12-08T06:43:40;98090.88;;;4.02;100.00
46722;BME280;32455;43.430;23.136;2022-12-08T06:46:25;98079.06;;;3.90;100.00
46722;BME280;32455;43.430;23.136;2022-12-08T06:49:11;98082.81;;;3.95;100.00
46722;BME280;32455;43.430;23.136;2022-12-08T06:51:56;98098.94;;;3.94;100.00
46722;BME280;32455;43.430;23.136;2022-12-08T06:54:42;98109.00;;;3.84;100.00
46722;BME280;32455;43.430;23.136;2022-12-08T06:57:27;98099.94;;;3.78;100.00
46722;BME280;32455;43.430;23.136;2022-12-08T07:00:12;98090.44;;;3.98;100.00
46722;BME280;32455;43.430;23.136;2022-12-08T07:02:58;98091.72;;;4.03;100.00
46722;BME280;32455;43.430;23.136;2022-12-08T07:05:43;98093.53;;;4.02;100.00
46722;BME280;32455;43.430;23.136;2022-12-08T07:08:29;98082.72;;;4.04;100.00
46722;BME280;32455;43.430;23.136;2022-12-08T07:11:13;98073.94;;;4.03;100.00
46722;BME280;32455;43.430;23.136;2022-12-08T07:13:58;98097.31;;;4.08;100.00
46722;BME280;32455;43.430;23.136;2022-12-08T07:16:43;98083.19;;;4.07;100.00
46722;BME280;32455;43.430;23.136;2022-12-08T07:19:29;98110.59;;;4.08;100.00
46722;BME280;32455;43.430;23.136;2022-12-08T07:22:14;98100.97;;;4.07;100.00
46722;BME280;32455;43.430;23.136;2022-12-08T07:24:59;98111.78;;;3.90;100.00
46722;BME280;32455;43.430;23.136;2022-12-08T07:27:45;98086.94;;;3.98;100.00
46722;BME280;32455;43.430;23.136;2022-12-08T07:30:30;98111.78;;;4.05;100.00
46722;BME280;32455;43.430;23.136;2022-12-08T07:33:16;98102.06;;;3.83;100.00
46722;BME280;32455;43.430;23.136;2022-12-08T07:36:03;98118.47;;;4.01;100.00
46722;BME280;32455;43.430;23.136;2022-12-08T07:38:51;98110.31;;;4.17;100.00
46722;BME280;32455;43.430;23.136;2022-12-08T07:41:37;98103.63;;;4.07;100.00
46722;BME280;32455;43.430;23.136;2022-12-08T07:44:23;98125.00;;;4.28;100.00
46722;BME280;32455;43.430;23.136;2022-12-08T07:47:08;98114.44;;;4.35;100.00
46722;BME280;32455;43.430;23.136;2022-12-08T07:49:54;98096.91;;;4.40;100.00
46722;BME280;32455;43.430;23.136;2022-12-08T07:52:39;98110.78;;;4.36;100.00
46722;BME280;32455;43.430;23.136;2022-12-08T07:55:25;98113.06;;;4.39;100.00
46722;BME280;32455;43.430;23.136;2022-12-08T07:58:10;98129.41;;;4.50;100.00
46722;BME280;32455;43.430;23.136;2022-12-08T08:00:56;98133.72;;;4.51;100.00
46722;BME280;32455;43.430;23.136;2022-12-08T08:03:42;98123.78;;;4.60;100.00
46722;BME280;32455;43.430;23.136;2022-12-08T08:06:27;98132.78;;;4.59;100.00
46722;BME280;32455;43.430;23.136;2022-12-08T08:09:13;98135.72;;;4.64;100.00
46722;BME280;32455;43.430;23.136;2022-12-08T08:11:58;98138.19;;;4.66;100.00
46722;BME280;32455;43.430;23.136;2022-12-08T08:14:43;98133.44;;;4.46;100.00
46722;BME280;32455;43.430;23.136;2022-12-08T08:17:29;98154.25;;;4.58;100.00
46722;BME280;32455;43.430;23.136;2022-12-08T08:20:15;98135.44;;;4.44;100.00
46722;BME280;32455;43.430;23.136;2022-12-08T08:23:00;98134.72;;;4.50;100.00
46722;BME280;32455;43.430;23.136;2022-12-08T08:25:45;98142.41;;;4.60;100.00
46722;BME280;32455;43.430;23.136;2022-12-08T08:28:31;98140.56;;;4.61;100.00
46722;BME280;32455;43.430;23.136;2022-12-08T08:31:17;98140.22;;;4.64;100.00
46722;BME280;32455;43.430;23.136;2022-12-08T08:34:02;98121.28;;;4.73;100.00
46722;BME280;32455;43.430;23.136;2022-12-08T08:36:50;98131.16;;;4.80;100.00
46722;BME280;32455;43.430;23.136;2022-12-08T08:39:35;98123.38;;;4.93;100.00
46722;BME280;32455;43.430;23.136;2022-12-08T08:42:21;98139.91;;;4.73;100.00
46722;BME280;32455;43.430;23.136;2022-12-08T08:45:07;98154.69;;;4.76;100.00
46722;BME280;32455;43.430;23.136;2022-12-08T08:47:52;98128.91;;;4.62;100.00
46722;BME280;32455;43.430;23.136;2022-12-08T08:50:37;98149.56;;;4.60;100.00
46722;BME280;32455;43.430;23.136;2022-12-08T08:53:21;98136.06;;;4.61;100.00
46722;BME280;32455;43.430;23.136;2022-12-08T08:56:11;98138.66;;;4.55;100.00
46722;BME280;32455;43.430;23.136;2022-12-08T08:58:57;98134.22;;;4.76;100.00
46722;BME280;32455;43.430;23.136;2022-12-08T09:01:42;98119.34;;;4.82;100.00
46722;BME280;32455;43.430;23.136;2022-12-08T09:04:27;98137.00;;;4.68;100.00
46722;BME280;32455;43.430;23.136;2022-12-08T09:07:14;98133.06;;;4.64;100.00
46722;BME280;32455;43.430;23.136;2022-12-08T09:10:00;98130.94;;;4.60;100.00
46722;BME280;32455;43.430;23.136;2022-12-08T09:12:46;98133.78;;;4.58;100.00
46722;BME280;32455;43.430;23.136;2022-12-08T09:15:31;98124.59;;;4.61;100.00
46722;BME280;32455;43.430;23.136;2022-12-08T09:18:16;98126.91;;;4.64;100.00
46722;BME280;32455;43.430;23.136;2022-12-08T09:21:07;98124.41;;;4.77;100.00
46722;BME280;32455;43.430;23.136;2022-12-08T09:23:55;98114.38;;;4.79;100.00
46722;BME280;32455;43.430;23.136;2022-12-08T09:26:42;98121.19;;;4.82;100.00
46722;BME280;32455;43.430;23.136;2022-12-08T09:29:28;98116.66;;;4.82;100.00
46722;BME280;32455;43.430;23.136;2022-12-08T09:32:15;98102.03;;;4.71;100.00
46722;BME280;32455;43.430;23.136;2022-12-08T09:35:00;98095.94;;;4.77;100.00
46722;BME280;32455;43.430;23.136;2022-12-08T09:37:45;98093.63;;;4.89;100.00
46722;BME280;32455;43.430;23.136;2022-12-08T09:40:32;98097.44;;;5.01;100.00
46722;BME280;32455;43.430;23.136;2022-12-08T09:43:50;98103.59;;;5.02;100.00
46722;BME280;32455;43.430;23.136;2022-12-08T09:46:40;98094.06;;;4.93;100.00
46722;BME280;32455;43.430;23.136;2022-12-08T09:49:37;98099.84;;;5.18;100.00
46722;BME280;32455;43.430;23.136;2022-12-08T09:52:29;98060.19;;;4.87;100.00
46722;BME280;32455;43.430;23.136;2022-12-08T09:55:36;98058.31;;;5.02;100.00
46722;BME280;32455;43.430;23.136;2022-12-08T10:01:39;98070.50;;;5.11;100.00
46722;BME280;32455;43.430;23.136;2022-12-08T10:04:33;98070.69;;;5.10;100.00
46722;BME280;32455;43.430;23.136;2022-12-08T10:07:53;98052.16;;;4.80;100.00
46722;BME280;32455;43.430;23.136;2022-12-08T10:10:56;98063.13;;;4.92;100.00
46722;BME280;32455;43.430;23.136;2022-12-08T10:13:57;98058.19;;;4.89;100.00
46722;BME280;32455;43.430;23.136;2022-12-08T10:16:48;98056.47;;;5.02;100.00
46722;BME280;32455;43.430;23.136;2022-12-08T10:19:35;98055.41;;;4.97;100.00
46722;BME280;32455;43.430;23.136;2022-12-08T10:22:24;98054.63;;;5.03;100.00
46722;BME280;32455;43.430;23.136;2022-12-08T10:25:24;98060.03;;;4.88;100.00
46722;BME280;32455;43.430;23.136;2022-12-08T10:28:13;98053.03;;;4.87;100.00
46722;BME280;32455;43.430;23.136;2022-12-08T10:30:58;98040.41;;;4.74;100.00
46722;BME280;32455;43.430;23.136;2022-12-08T10:33:47;98032.38;;;4.89;100.00
46722;BME280;32455;43.430;23.136;2022-12-08T10:36:56;98043.16;;;5.02;100.00
46722;BME280;32455;43.430;23.136;2022-12-08T10:39:42;98041.81;;;4.92;100.00
46722;BME280;32455;43.430;23.136;2022-12-08T10:42:33;98031.56;;;5.10;100.00
46722;BME280;32455;43.430;23.136;2022-12-08T10:48:18;98022.69;;;5.03;100.00
46722;BME280;32455;43.430;23.136;2022-12-08T10:51:04;98022.34;;;5.13;100.00
46722;BME280;32455;43.430;23.136;2022-12-08T10:53:50;98008.88;;;5.14;100.00
46722;BME280;32455;43.430;23.136;2022-12-08T10:56:35;98005.41;;;5.20;100.00
46722;BME280;32455;43.430;23.136;2022-12-08T10:59:21;97998.06;;;5.22;100.00
46722;BME280;32455;43.430;23.136;2022-12-08T11:02:18;98002.84;;;5.06;100.00
46722;BME280;32455;43.430;23.136;2022-12-08T11:05:04;98003.66;;;5.06;100.00
46722;BME280;32455;43.430;23.136;2022-12-08T11:07:52;98015.72;;;5.02;100.00
46722;BME280;32455;43.430;23.136;2022-12-08T11:10:43;98008.78;;;5.08;100.00
46722;BME280;32455;43.430;23.136;2022-12-08T11:13:29;98018.94;;;5.19;100.00
46722;BME280;32455;43.430;23.136;2022-12-08T11:16:17;98017.59;;;5.30;100.00
46722;BME280;32455;43.430;23.136;2022-12-08T11:19:03;98006.19;;;5.14;100.00
46722;BME280;32455;43.430;23.136;2022-12-08T11:21:54;98015.63;;;5.17;100.00
46722;BME280;32455;43.430;23.136;2022-12-08T11:24:39;98016.44;;;5.17;100.00
46722;BME280;32455;43.430;23.136;2022-12-08T11:27:24;98002.97;;;4.97;100.00
46722;BME280;32455;43.430;23.136;2022-12-08T11:30:22;97990.63;;;4.90;100.00
46722;BME280;32455;43.430;23.136;2022-12-08T11:33:20;97990.97;;;5.08;100.00
46722;BME280;32455;43.430;23.136;2022-12-08T11:36:10;98002.69;;;5.14;100.00
46722;BME280;32455;43.430;23.136;2022-12-08T11:38:59;97995.41;;;5.22;100.00
46722;BME280;32455;43.430;23.136;2022-12-08T11:41:45;97989.63;;;5.19;100.00
46722;BME280;32455;43.430;23.136;2022-12-08T11:44:52;97985.38;;;5.24;100.00
46722;BME280;32455;43.430;23.136;2022-12-08T11:47:46;98004.63;;;5.26;100.00
46722;BME280;32455;43.430;23.136;2022-12-08T11:56:41;97992.38;;;5.04;100.00
46722;BME280;32455;43.430;23.136;2022-12-08T11:59:38;97981.34;;;4.86;100.00
46722;BME280;32455;43.430;23.136;2022-12-08T12:02:31;97981.16;;;4.87;100.00
46722;BME280;32455;43.430;23.136;2022-12-08T12:05:30;97995.97;;;4.96;100.00
46722;BME280;32455;43.430;23.136;2022-12-08T12:08:34;97985.53;;;4.95;100.00
46722;BME280;32455;43.430;23.136;2022-12-08T12:23:50;97984.63;;;4.66;100.00
46722;BME280;32455;43.430;23.136;2022-12-08T12:26:39;97990.63;;;4.68;100.00
46722;BME280;32455;43.430;23.136;2022-12-08T12:29:36;97984.28;;;4.69;100.00
46722;BME280;32455;43.430;23.136;2022-12-08T12:32:23;97986.03;;;4.84;100.00
46722;BME280;32455;43.430;23.136;2022-12-08T12:35:39;97977.78;;;5.00;100.00
46722;BME280;32455;43.430;23.136;2022-12-08T12:41:47;97995.00;;;4.97;100.00
46722;BME280;32455;43.430;23.136;2022-12-08T12:44:37;97984.00;;;5.07;100.00
46722;BME280;32455;43.430;23.136;2022-12-08T12:47:46;97994.47;;;5.09;100.00
46722;BME280;32455;43.430;23.136;2022-12-08T12:50:42;97996.63;;;4.98;100.00
46722;BME280;32455;43.430;23.136;2022-12-08T12:56:46;97973.63;;;4.91;100.00
46722;BME280;32455;43.430;23.136;2022-12-08T12:59:39;97971.84;;;4.98;100.00
46722;BME280;32455;43.430;23.136;2022-12-08T13:02:31;97958.66;;;4.90;100.00
46722;BME280;32455;43.430;23.136;2022-12-08T13:05:29;97969.28;;;5.11;100.00
46722;BME280;32455;43.430;23.136;2022-12-08T13:08:26;97966.97;;;5.01;100.00
46722;BME280;32455;43.430;23.136;2022-12-08T13:11:13;97971.72;;;5.06;100.00
46722;BME280;32455;43.430;23.136;2022-12-08T13:14:03;97974.06;;;4.94;100.00
46722;BME280;32455;43.430;23.136;2022-12-08T13:16:52;97954.94;;;5.12;100.00
46722;BME280;32455;43.430;23.136;2022-12-08T13:19:39;97953.66;;;5.01;100.00
46722;BME280;32455;43.430;23.136;2022-12-08T13:25:50;97969.56;;;4.95;100.00
46722;BME280;32455;43.430;23.136;2022-12-08T13:31:50;97958.34;;;4.78;100.00
46722;BME280;32455;43.430;23.136;2022-12-08T13:34:52;97977.31;;;4.90;100.00
46722;BME280;32455;43.430;23.136;2022-12-08T13:37:48;97971.44;;;5.01;100.00
46722;BME280;32455;43.430;23.136;2022-12-08T13:40:35;97963.47;;;4.80;100.00
46722;BME280;32455;43.430;23.136;2022-12-08T13:43:44;97962.66;;;4.79;100.00
46722;BME280;32455;43.430;23.136;2022-12-08T13:46:54;97960.09;;;4.92;100.00
46722;BME280;32455;43.430;23.136;2022-12-08T13:50:08;97969.94;;;4.70;100.00
46722;BME280;32455;43.430;23.136;2022-12-08T13:53:13;97954.63;;;4.72;100.00
46722;BME280;32455;43.430;23.136;2022-12-08T13:56:00;97968.28;;;4.91;100.00
46722;BME280;32455;43.430;23.136;2022-12-08T13:58:46;97954.50;;;4.81;100.00
46722;BME280;32455;43.430;23.136;2022-12-08T14:01:37;97950.44;;;4.85;100.00
46722;BME280;32455;43.430;23.136;2022-12-08T14:04:27;97957.88;;;4.96;100.00
46722;BME280;32455;43.430;23.136;2022-12-08T14:07:13;97960.97;;;4.93;100.00
46722;BME280;32455;43.430;23.136;2022-12-08T14:10:01;97968.53;;;4.74;100.00
46722;BME280;32455;43.430;23.136;2022-12-08T14:12:53;97966.34;;;4.78;100.00
46722;BME280;32455;43.430;23.136;2022-12-08T14:15:39;97974.66;;;4.68;100.00
46722;BME280;32455;43.430;23.136;2022-12-08T14:18:29;97968.41;;;4.61;100.00
46722;BME280;32455;43.430;23.136;2022-12-08T14:21:15;97970.22;;;4.75;100.00
46722;BME280;32455;43.430;23.136;2022-12-08T14:24:03;97970.72;;;4.64;100.00
46722;BME280;32455;43.430;23.136;2022-12-08T14:26:52;97961.69;;;4.87;100.00
46722;BME280;32455;43.430;23.136;2022-12-08T14:29:53;97960.19;;;4.77;100.00
46722;BME280;32455;43.430;23.136;2022-12-08T14:32:46;97943.19;;;4.78;100.00
46722;BME280;32455;43.430;23.136;2022-12-08T14:35:36;97977.69;;;4.87;100.00
46722;BME280;32455;43.430;23.136;2022-12-08T14:38:23;97973.06;;;4.74;100.00
46722;BME280;32455;43.430;23.136;2022-12-08T14:41:10;97968.03;;;4.86;100.00
46722;BME280;32455;43.430;23.136;2022-12-08T14:44:00;97973.88;;;4.96;100.00
46722;BME280;32455;43.430;23.136;2022-12-08T14:47:06;97945.16;;;4.91;100.00
46722;BME280;32455;43.430;23.136;2022-12-08T14:49:52;97942.72;;;4.68;100.00
46722;BME280;32455;43.430;23.136;2022-12-08T14:52:42;97959.16;;;4.78;100.00
46722;BME280;32455;43.430;23.136;2022-12-08T14:55:34;97971.22;;;4.74;100.00
46722;BME280;32455;43.430;23.136;2022-12-08T14:58:29;97965.75;;;4.61;100.00
46722;BME280;32455;43.430;23.136;2022-12-08T15:01:20;97978.31;;;4.67;100.00
46722;BME280;32455;43.430;23.136;2022-12-08T15:07:04;97957.97;;;4.81;100.00
46722;BME280;32455;43.430;23.136;2022-12-08T15:15:54;97974.06;;;4.73;100.00
46722;BME280;32455;43.430;23.136;2022-12-08T15:18:40;97957.84;;;4.68;100.00
46722;BME280;32455;43.430;23.136;2022-12-08T15:21:28;97968.88;;;4.86;100.00
46722;BME280;32455;43.430;23.136;2022-12-08T15:24:15;97971.47;;;4.80;100.00
46722;BME280;32455;43.430;23.136;2022-12-08T15:27:02;97966.66;;;4.90;100.00
46722;BME280;32455;43.430;23.136;2022-12-08T15:29:49;97973.69;;;4.76;100.00
46722;BME280;32455;43.430;23.136;2022-12-08T15:32:34;97962.72;;;4.64;100.00
46722;BME280;32455;43.430;23.136;2022-12-08T15:35:19;97976.66;;;4.66;100.00
46722;BME280;32455;43.430;23.136;2022-12-08T15:38:05;97960.75;;;4.73;100.00
46722;BME280;32455;43.430;23.136;2022-12-08T15:40:52;97967.56;;;4.75;100.00
46722;BME280;32455;43.430;23.136;2022-12-08T15:43:38;97958.22;;;4.86;100.00
46722;BME280;32455;43.430;23.136;2022-12-08T15:46:24;97975.22;;;4.85;100.00
46722;BME280;32455;43.430;23.136;2022-12-08T15:49:18;97979.06;;;4.83;100.00
46722;BME280;32455;43.430;23.136;2022-12-08T15:52:11;97983.19;;;4.85;100.00
46722;BME280;32455;43.430;23.136;2022-12-08T15:54:57;97993.59;;;4.80;100.00